sensor_id;sensor_type;location;lat;lon;timestamp;P1;P2;P0
65574;PMS5003;73096;55.050;73.422;2024-03-17T00:02:26;21.00;16.75;7.00
65574;PMS5003;73096;55.050;73.422;2024-03-17T00:05:30;18.00;16.00;8.00
65574;PMS5003;73096;55.050;73.422;2024-03-17T00:08:33;17.00;15.25;8.25
65574;PMS5003;73096;55.050;73.422;2024-03-17T00:11:35;18.33;15.00;7.00
65574;PMS5003;73096;55.050;73.422;2024-03-17T00:14:37;17.33;14.00;7.00
65574;PMS5003;73096;55.050;73.422;2024-03-17T00:17:41;16.50;14.25;7.00
65574;PMS5003;73096;55.050;73.422;2024-03-17T00:20:43;18.00;15.00;6.00
65574;PMS5003;73096;55.050;73.422;2024-03-17T00:23:47;17.00;14.33;7.00
65574;PMS5003;73096;55.050;73.422;2024-03-17T00:26:52;17.00;15.00;7.00
65574;PMS5003;73096;55.050;73.422;2024-03-17T00:29:58;17.00;15.50;7.00
65574;PMS5003;73096;55.050;73.422;2024-03-17T00:33:01;16.00;16.00;7.00
65574;PMS5003;73096;55.050;73.422;2024-03-17T00:36:04;18.00;16.00;9.00
65574;PMS5003;73096;55.050;73.422;2024-03-17T00:39:07;14.75;13.50;5.00
65574;PMS5003;73096;55.050;73.422;2024-03-17T00:42:10;16.00;14.00;5.75
65574;PMS5003;73096;55.050;73.422;2024-03-17T00:45:13;14.50;13.00;4.00
65574;PMS5003;73096;55.050;73.422;2024-03-17T00:48:16;16.00;14.00;6.00
65574;PMS5003;73096;55.050;73.422;2024-03-17T00:51:19;16.00;15.00;6.00
65574;PMS5003;73096;55.050;73.422;2024-03-17T00:54:22;15.00;13.75;4.00
65574;PMS5003;73096;55.050;73.422;2024-03-17T00:57:25;14.25;13.00;4.00
65574;PMS5003;73096;55.050;73.422;2024-03-17T01:00:29;13.25;11.50;5.00
65574;PMS5003;73096;55.050;73.422;2024-03-17T01:03:32;12.00;11.75;4.00
65574;PMS5003;73096;55.050;73.422;2024-03-17T01:06:35;13.00;11.25;4.25
65574;PMS5003;73096;55.050;73.422;2024-03-17T01:09:39;13.75;13.50;6.00
65574;PMS5003;73096;55.050;73.422;2024-03-17T01:12:42;15.75;13.75;5.00
65574;PMS5003;73096;55.050;73.422;2024-03-17T01:15:45;15.00;14.00;5.00
65574;PMS5003;73096;55.050;73.422;2024-03-17T01:18:54;17.00;14.00;6.00
65574;PMS5003;73096;55.050;73.422;2024-03-17T01:22:01;16.00;14.00;5.75
65574;PMS5003;73096;55.050;73.422;2024-03-17T01:25:04;14.25;14.00;5.00
65574;PMS5003;73096;55.050;73.422;2024-03-17T01:28:09;15.00;14.00;5.00
65574;PMS5003;73096;55.050;73.422;2024-03-17T01:31:12;16.00;14.50;6.75
65574;PMS5003;73096;55.050;73.422;2024-03-17T01:34:15;17.00;16.00;8.00
65574;PMS5003;73096;55.050;73.422;2024-03-17T01:37:17;18.00;16.67;7.67
65574;PMS5003;73096;55.050;73.422;2024-03-17T01:40:19;16.67;15.00;6.67
65574;PMS5003;73096;55.050;73.422;2024-03-17T01:43:24;16.00;13.50;6.75
65574;PMS5003;73096;55.050;73.422;2024-03-17T01:46:27;16.00;13.00;6.75
65574;PMS5003;73096;55.050;73.422;2024-03-17T01:49:31;15.00;13.75;6.00
65574;PMS5003;73096;55.050;73.422;2024-03-17T01:52:34;14.00;13.75;6.00
65574;PMS5003;73096;55.050;73.422;2024-03-17T01:55:38;16.00;14.00;7.75
65574;PMS5003;73096;55.050;73.422;2024-03-17T01:58:40;16.67;14.33;6.67
65574;PMS5003;73096;55.050;73.422;2024-03-17T02:01:46;18.50;15.00;8.00
65574;PMS5003;73096;55.050;73.422;2024-03-17T02:04:48;19.25;16.00;8.00
65574;PMS5003;73096;55.050;73.422;2024-03-17T02:07:52;19.00;15.00;8.00
65574;PMS5003;73096;55.050;73.422;2024-03-17T02:10:56;17.00;16.00;7.00
65574;PMS5003;73096;55.050;73.422;2024-03-17T02:14:00;20.25;17.00;9.00
65574;PMS5003;73096;55.050;73.422;2024-03-17T02:17:05;18.00;16.00;9.33
65574;PMS5003;73096;55.050;73.422;2024-03-17T02:20:08;19.00;16.00;9.00
65574;PMS5003;73096;55.050;73.422;2024-03-17T02:23:14;21.00;18.00;9.00
65574;PMS5003;73096;55.050;73.422;2024-03-17T02:26:16;20.75;18.00;9.00
65574;PMS5003;73096;55.050;73.422;2024-03-17T02:29:20;21.00;19.00;10.00
65574;PMS5003;73096;55.050;73.422;2024-03-17T02:32:23;22.67;21.00;12.00
65574;PMS5003;73096;55.050;73.422;2024-03-17T02:35:43;23.25;20.00;13.00
65574;PMS5003;73096;55.050;73.422;2024-03-17T02:38:45;24.00;21.00;12.00
65574;PMS5003;73096;55.050;73.422;2024-03-17T02:42:06;27.00;23.00;14.00
65574;PMS5003;73096;55.050;73.422;2024-03-17T02:45:09;27.00;22.00;14.00
65574;PMS5003;73096;55.050;73.422;2024-03-17T02:48:12;25.50;22.00;13.00
65574;PMS5003;73096;55.050;73.422;2024-03-17T02:51:14;24.00;21.00;13.00
65574;PMS5003;73096;55.050;73.422;2024-03-17T02:54:18;24.00;22.00;13.50
65574;PMS5003;73096;55.050;73.422;2024-03-17T02:57:22;24.00;22.00;13.00
65574;PMS5003;73096;55.050;73.422;2024-03-17T03:00:26;26.00;22.00;13.00
65574;PMS5003;73096;55.050;73.422;2024-03-17T03:03:28;25.00;23.00;13.00
65574;PMS5003;73096;55.050;73.422;2024-03-17T03:06:33;26.00;22.00;13.67
65574;PMS5003;73096;55.050;73.422;2024-03-17T03:09:37;27.00;22.00;12.00
65574;PMS5003;73096;55.050;73.422;2024-03-17T03:12:39;28.50;23.00;14.00
65574;PMS5003;73096;55.050;73.422;2024-03-17T03:15:41;27.67;22.00;14.00
65574;PMS5003;73096;55.050;73.422;2024-03-17T03:18:43;25.67;22.00;14.00
65574;PMS5003;73096;55.050;73.422;2024-03-17T03:21:47;25.00;22.00;14.00
65574;PMS5003;73096;55.050;73.422;2024-03-17T03:24:51;22.00;20.75;14.00
65574;PMS5003;73096;55.050;73.422;2024-03-17T03:27:55;26.00;21.00;14.00
65574;PMS5003;73096;55.050;73.422;2024-03-17T03:31:03;26.25;23.00;14.50
65574;PMS5003;73096;55.050;73.422;2024-03-17T03:34:06;28.00;24.00;16.00
65574;PMS5003;73096;55.050;73.422;2024-03-17T03:37:11;30.00;25.33;16.00
65574;PMS5003;73096;55.050;73.422;2024-03-17T03:40:14;31.00;25.25;16.00
65574;PMS5003;73096;55.050;73.422;2024-03-17T03:43:20;30.00;23.67;16.00
65574;PMS5003;73096;55.050;73.422;2024-03-17T03:46:25;33.00;25.00;16.50
65574;PMS5003;73096;55.050;73.422;2024-03-17T03:49:30;32.00;26.00;16.00
65574;PMS5003;73096;55.050;73.422;2024-03-17T03:52:33;33.50;27.00;16.50
65574;PMS5003;73096;55.050;73.422;2024-03-17T03:55:35;32.75;27.75;16.50
65574;PMS5003;73096;55.050;73.422;2024-03-17T03:58:39;33.00;27.00;16.00
65574;PMS5003;73096;55.050;73.422;2024-03-17T04:01:42;31.50;26.00;16.00
65574;PMS5003;73096;55.050;73.422;2024-03-17T04:04:45;31.00;26.00;16.00
65574;PMS5003;73096;55.050;73.422;2024-03-17T04:07:49;32.00;25.00;16.00
65574;PMS5003;73096;55.050;73.422;2024-03-17T04:10:51;28.00;23.00;15.00
65574;PMS5003;73096;55.050;73.422;2024-03-17T04:13:53;31.00;24.50;15.00
65574;PMS5003;73096;55.050;73.422;2024-03-17T04:16:56;30.50;25.00;16.00
65574;PMS5003;73096;55.050;73.422;2024-03-17T04:19:58;31.00;25.00;16.00
65574;PMS5003;73096;55.050;73.422;2024-03-17T04:23:02;34.75;26.75;16.00
65574;PMS5003;73096;55.050;73.422;2024-03-17T04:26:05;35.00;29.00;16.50
65574;PMS5003;73096;55.050;73.422;2024-03-17T04:29:10;36.00;29.00;17.00
65574;PMS5003;73096;55.050;73.422;2024-03-17T04:32:13;35.00;28.67;17.00
65574;PMS5003;73096;55.050;73.422;2024-03-17T04:35:16;35.00;28.75;17.00
65574;PMS5003;73096;55.050;73.422;2024-03-17T04:38:18;34.00;27.00;17.00
65574;PMS5003;73096;55.050;73.422;2024-03-17T04:41:22;33.75;27.00;17.00
65574;PMS5003;73096;55.050;73.422;2024-03-17T04:44:24;32.00;26.00;16.00
65574;PMS5003;73096;55.050;73.422;2024-03-17T04:47:27;28.00;23.00;15.00
65574;PMS5003;73096;55.050;73.422;2024-03-17T04:50:29;27.00;23.00;15.00
65574;PMS5003;73096;55.050;73.422;2024-03-17T04:53:35;24.50;21.00;14.00
65574;PMS5003;73096;55.050;73.422;2024-03-17T04:56:37;24.00;22.00;14.00
65574;PMS5003;73096;55.050;73.422;2024-03-17T04:59:39;22.50;20.00;13.00
65574;PMS5003;73096;55.050;73.422;2024-03-17T05:02:43;21.33;20.00;13.00
65574;PMS5003;73096;55.050;73.422;2024-03-17T05:05:45;23.00;20.50;13.00
65574;PMS5003;73096;55.050;73.422;2024-03-17T05:08:48;24.50;22.00;13.50
65574;PMS5003;73096;55.050;73.422;2024-03-17T05:11:50;23.00;21.00;13.00
65574;PMS5003;73096;55.050;73.422;2024-03-17T05:14:55;22.00;21.00;12.00
65574;PMS5003;73096;55.050;73.422;2024-03-17T05:17:57;21.00;21.00;13.00
65574;PMS5003;73096;55.050;73.422;2024-03-17T05:24:03;23.75;19.00;12.25
65574;PMS5003;73096;55.050;73.422;2024-03-17T05:27:06;24.00;21.75;13.00
65574;PMS5003;73096;55.050;73.422;2024-03-17T05:30:09;23.00;20.00;13.00
65574;PMS5003;73096;55.050;73.422;2024-03-17T05:33:12;22.00;20.00;13.00
65574;PMS5003;73096;55.050;73.422;2024-03-17T05:36:16;22.00;19.25;12.00
65574;PMS5003;73096;55.050;73.422;2024-03-17T05:39:22;22.67;21.00;13.67
65574;PMS5003;73096;55.050;73.422;2024-03-17T05:42:25;23.00;20.00;13.00
65574;PMS5003;73096;55.050;73.422;2024-03-17T05:45:28;22.00;20.00;13.00
65574;PMS5003;73096;55.050;73.422;2024-03-17T05:48:30;22.00;21.00;14.00
65574;PMS5003;73096;55.050;73.422;2024-03-17T05:51:32;23.00;21.00;14.00
65574;PMS5003;73096;55.050;73.422;2024-03-17T05:54:34;22.00;20.00;14.00
65574;PMS5003;73096;55.050;73.422;2024-03-17T05:57:37;23.00;22.00;14.00
65574;PMS5003;73096;55.050;73.422;2024-03-17T06:00:39;24.00;22.00;14.00
65574;PMS5003;73096;55.050;73.422;2024-03-17T06:03:41;24.25;22.00;14.00
65574;PMS5003;73096;55.050;73.422;2024-03-17T06:06:44;22.00;20.00;13.00
65574;PMS5003;73096;55.050;73.422;2024-03-17T06:09:48;23.00;20.00;11.25
65574;PMS5003;73096;55.050;73.422;2024-03-17T06:12:51;22.75;21.00;11.00
65574;PMS5003;73096;55.050;73.422;2024-03-17T06:15:55;23.00;21.00;11.75
65574;PMS5003;73096;55.050;73.422;2024-03-17T06:19:03;21.00;19.75;12.00
65574;PMS5003;73096;55.050;73.422;2024-03-17T06:22:06;21.00;19.00;12.00
65574;PMS5003;73096;55.050;73.422;2024-03-17T06:25:10;20.33;20.00;12.00
65574;PMS5003;73096;55.050;73.422;2024-03-17T06:28:14;18.00;18.00;12.00
65574;PMS5003;73096;55.050;73.422;2024-03-17T06:31:16;20.00;19.00;12.00
65574;PMS5003;73096;55.050;73.422;2024-03-17T06:34:19;19.50;18.50;11.00
65574;PMS5003;73096;55.050;73.422;2024-03-17T06:37:22;22.00;19.00;13.00
65574;PMS5003;73096;55.050;73.422;2024-03-17T06:40:26;20.00;19.00;12.00
65574;PMS5003;73096;55.050;73.422;2024-03-17T06:43:28;21.00;18.25;12.00
65574;PMS5003;73096;55.050;73.422;2024-03-17T06:46:30;21.00;19.50;11.00
65574;PMS5003;73096;55.050;73.422;2024-03-17T06:49:34;22.00;20.00;12.00
65574;PMS5003;73096;55.050;73.422;2024-03-17T06:52:37;23.67;20.00;13.00
65574;PMS5003;73096;55.050;73.422;2024-03-17T06:55:39;23.50;20.00;12.50
65574;PMS5003;73096;55.050;73.422;2024-03-17T06:58:43;24.25;20.00;13.00
65574;PMS5003;73096;55.050;73.422;2024-03-17T07:01:45;24.75;21.00;13.00
65574;PMS5003;73096;55.050;73.422;2024-03-17T07:04:48;24.00;20.00;12.75
65574;PMS5003;73096;55.050;73.422;2024-03-17T07:07:52;25.00;23.00;15.00
65574;PMS5003;73096;55.050;73.422;2024-03-17T07:11:04;23.50;22.00;15.00
65574;PMS5003;73096;55.050;73.422;2024-03-17T07:14:08;25.00;21.00;15.00
65574;PMS5003;73096;55.050;73.422;2024-03-17T07:17:10;24.75;21.00;14.00
65574;PMS5003;73096;55.050;73.422;2024-03-17T07:20:15;21.75;19.00;13.00
65574;PMS5003;73096;55.050;73.422;2024-03-17T07:23:19;21.00;19.00;13.00
65574;PMS5003;73096;55.050;73.422;2024-03-17T07:26:22;21.75;21.50;13.00
65574;PMS5003;73096;55.050;73.422;2024-03-17T07:29:24;19.75;19.00;12.00
65574;PMS5003;73096;55.050;73.422;2024-03-17T07:32:27;19.75;18.25;11.00
65574;PMS5003;73096;55.050;73.422;2024-03-17T07:35:29;22.00;20.25;12.00
65574;PMS5003;73096;55.050;73.422;2024-03-17T07:38:32;22.33;21.67;11.00
65574;PMS5003;73096;55.050;73.422;2024-03-17T07:41:37;26.00;25.00;12.75
65574;PMS5003;73096;55.050;73.422;2024-03-17T07:44:39;25.75;24.00;15.00
65574;PMS5003;73096;55.050;73.422;2024-03-17T07:47:41;25.25;23.25;16.00
65574;PMS5003;73096;55.050;73.422;2024-03-17T07:50:43;29.00;24.00;16.00
65574;PMS5003;73096;55.050;73.422;2024-03-17T07:53:55;27.00;23.00;15.00
65574;PMS5003;73096;55.050;73.422;2024-03-17T07:56:57;25.50;23.25;14.00
65574;PMS5003;73096;55.050;73.422;2024-03-17T08:00:02;26.00;25.00;15.00
65574;PMS5003;73096;55.050;73.422;2024-03-17T08:03:06;27.00;25.00;16.00
65574;PMS5003;73096;55.050;73.422;2024-03-17T08:06:10;27.00;25.75;15.25
65574;PMS5003;73096;55.050;73.422;2024-03-17T08:09:15;28.00;25.00;14.00
65574;PMS5003;73096;55.050;73.422;2024-03-17T08:12:18;26.00;24.00;15.00
65574;PMS5003;73096;55.050;73.422;2024-03-17T08:15:20;28.00;24.50;15.00
65574;PMS5003;73096;55.050;73.422;2024-03-17T08:18:23;24.00;23.00;13.00
65574;PMS5003;73096;55.050;73.422;2024-03-17T08:21:26;22.50;22.50;12.00
65574;PMS5003;73096;55.050;73.422;2024-03-17T08:24:31;22.75;21.00;12.00
65574;PMS5003;73096;55.050;73.422;2024-03-17T08:27:34;22.00;21.00;12.00
65574;PMS5003;73096;55.050;73.422;2024-03-17T08:30:36;21.00;20.00;12.00
65574;PMS5003;73096;55.050;73.422;2024-03-17T08:33:38;19.00;17.00;9.00
65574;PMS5003;73096;55.050;73.422;2024-03-17T08:36:42;18.75;17.25;8.25
65574;PMS5003;73096;55.050;73.422;2024-03-17T08:39:44;21.75;20.00;11.00
65574;PMS5003;73096;55.050;73.422;2024-03-17T08:42:46;21.25;20.25;10.25
65574;PMS5003;73096;55.050;73.422;2024-03-17T08:45:56;19.67;17.33;10.00
65574;PMS5003;73096;55.050;73.422;2024-03-17T08:49:01;18.00;17.00;8.00
65574;PMS5003;73096;55.050;73.422;2024-03-17T08:52:05;16.75;15.00;5.75
65574;PMS5003;73096;55.050;73.422;2024-03-17T08:55:08;15.00;14.00;6.00
65574;PMS5003;73096;55.050;73.422;2024-03-17T08:58:14;16.00;14.00;6.75
65574;PMS5003;73096;55.050;73.422;2024-03-17T09:01:17;15.25;12.00;5.00
65574;PMS5003;73096;55.050;73.422;2024-03-17T09:04:20;15.00;12.00;4.00
65574;PMS5003;73096;55.050;73.422;2024-03-17T09:07:24;13.75;11.00;6.00
65574;PMS5003;73096;55.050;73.422;2024-03-17T09:10:27;11.75;8.25;5.00
65574;PMS5003;73096;55.050;73.422;2024-03-17T09:13:30;15.00;12.50;7.00
65574;PMS5003;73096;55.050;73.422;2024-03-17T09:16:33;15.00;13.00;5.00
65574;PMS5003;73096;55.050;73.422;2024-03-17T09:19:37;9.75;8.25;4.00
65574;PMS5003;73096;55.050;73.422;2024-03-17T09:22:39;9.25;8.00;5.00
65574;PMS5003;73096;55.050;73.422;2024-03-17T09:25:42;13.75;9.75;5.00
65574;PMS5003;73096;55.050;73.422;2024-03-17T09:28:45;11.00;8.75;4.00
65574;PMS5003;73096;55.050;73.422;2024-03-17T09:31:49;12.50;8.50;4.25
65574;PMS5003;73096;55.050;73.422;2024-03-17T09:34:51;9.00;8.00;4.75
65574;PMS5003;73096;55.050;73.422;2024-03-17T09:37:54;9.50;8.00;5.00
65574;PMS5003;73096;55.050;73.422;2024-03-17T09:40:57;8.00;8.00;4.50
65574;PMS5003;73096;55.050;73.422;2024-03-17T09:44:03;7.75;7.75;4.00
65574;PMS5003;73096;55.050;73.422;2024-03-17T09:47:10;7.25;7.25;5.00
65574;PMS5003;73096;55.050;73.422;2024-03-17T09:50:19;8.00;8.00;5.00
65574;PMS5003;73096;55.050;73.422;2024-03-17T09:53:28;8.75;8.00;4.00
65574;PMS5003;73096;55.050;73.422;2024-03-17T09:56:30;7.00;7.00;4.00
65574;PMS5003;73096;55.050;73.422;2024-03-17T09:59:34;8.75;7.00;4.00
65574;PMS5003;73096;55.050;73.422;2024-03-17T10:02:36;8.00;7.00;4.00
65574;PMS5003;73096;55.050;73.422;2024-03-17T10:05:44;6.25;6.00;3.00
65574;PMS5003;73096;55.050;73.422;2024-03-17T10:08:48;8.00;7.00;3.00
65574;PMS5003;73096;55.050;73.422;2024-03-17T10:11:53;7.75;7.00;4.00
65574;PMS5003;73096;55.050;73.422;2024-03-17T10:15:00;8.00;8.00;3.00
65574;PMS5003;73096;55.050;73.422;2024-03-17T10:18:22;7.75;6.00;2.00
65574;PMS5003;73096;55.050;73.422;2024-03-17T10:21:26;8.00;7.00;3.00
65574;PMS5003;73096;55.050;73.422;2024-03-17T10:24:30;10.50;9.75;5.00
65574;PMS5003;73096;55.050;73.422;2024-03-17T10:27:34;10.00;8.75;4.00
65574;PMS5003;73096;55.050;73.422;2024-03-17T10:30:37;8.00;7.00;3.75
65574;PMS5003;73096;55.050;73.422;2024-03-17T10:33:42;17.00;14.75;8.50
65574;PMS5003;73096;55.050;73.422;2024-03-17T10:36:46;15.00;15.00;4.25
65574;PMS5003;73096;55.050;73.422;2024-03-17T10:39:52;8.00;8.00;2.50
65574;PMS5003;73096;55.050;73.422;2024-03-17T10:42:59;8.00;8.00;4.00
65574;PMS5003;73096;55.050;73.422;2024-03-17T10:46:02;7.67;7.67;4.00
65574;PMS5003;73096;55.050;73.422;2024-03-17T10:49:04;14.33;13.33;7.00
65574;PMS5003;73096;55.050;73.422;2024-03-17T10:52:17;16.00;16.00;8.00
65574;PMS5003;73096;55.050;73.422;2024-03-17T10:55:21;15.00;14.00;6.00
65574;PMS5003;73096;55.050;73.422;2024-03-17T11:02:00;12.00;11.00;4.00
65574;PMS5003;73096;55.050;73.422;2024-03-17T11:05:07;10.25;10.00;5.00
65574;PMS5003;73096;55.050;73.422;2024-03-17T11:08:15;12.50;10.00;5.00
65574;PMS5003;73096;55.050;73.422;2024-03-17T11:11:38;15.00;12.50;6.00
65574;PMS5003;73096;55.050;73.422;2024-03-17T11:14:43;14.75;12.00;6.50
65574;PMS5003;73096;55.050;73.422;2024-03-17T11:17:46;16.00;12.25;6.00
65574;PMS5003;73096;55.050;73.422;2024-03-17T11:21:06;12.00;8.50;5.00
65574;PMS5003;73096;55.050;73.422;2024-03-17T11:24:20;12.00;9.00;4.00
65574;PMS5003;73096;55.050;73.422;2024-03-17T11:27:39;9.00;7.25;5.00
65574;PMS5003;73096;55.050;73.422;2024-03-17T11:30:42;12.00;11.00;5.00
65574;PMS5003;73096;55.050;73.422;2024-03-17T11:33:55;11.25;11.00;6.00
65574;PMS5003;73096;55.050;73.422;2024-03-17T11:37:03;14.00;14.00;6.00
65574;PMS5003;73096;55.050;73.422;2024-03-17T11:40:22;19.00;15.75;7.00
65574;PMS5003;73096;55.050;73.422;2024-03-17T11:43:26;17.00;15.75;6.75
65574;PMS5003;73096;55.050;73.422;2024-03-17T11:46:30;14.00;11.00;4.00
65574;PMS5003;73096;55.050;73.422;2024-03-17T11:49:36;13.50;12.00;7.50
65574;PMS5003;73096;55.050;73.422;2024-03-17T11:52:43;15.00;13.00;6.75
65574;PMS5003;73096;55.050;73.422;2024-03-17T11:55:50;16.00;14.25;6.00
65574;PMS5003;73096;55.050;73.422;2024-03-17T11:59:06;18.50;16.75;7.00
65574;PMS5003;73096;55.050;73.422;2024-03-17T12:02:16;17.00;15.33;6.00
65574;PMS5003;73096;55.050;73.422;2024-03-17T12:05:20;13.00;12.00;4.50
65574;PMS5003;73096;55.050;73.422;2024-03-17T12:08:24;8.50;7.50;4.00
65574;PMS5003;73096;55.050;73.422;2024-03-17T12:11:43;8.00;6.00;4.67
65574;PMS5003;73096;55.050;73.422;2024-03-17T12:14:46;11.25;10.25;6.00
65574;PMS5003;73096;55.050;73.422;2024-03-17T12:17:53;15.00;11.00;5.00
65574;PMS5003;73096;55.050;73.422;2024-03-17T12:21:13;11.25;9.00;4.25
65574;PMS5003;73096;55.050;73.422;2024-03-17T12:24:21;8.50;7.00;3.50
65574;PMS5003;73096;55.050;73.422;2024-03-17T12:27:24;11.00;8.00;4.00
65574;PMS5003;73096;55.050;73.422;2024-03-17T12:30:26;10.00;7.00;3.00
65574;PMS5003;73096;55.050;73.422;2024-03-17T12:33:32;6.25;6.00;3.00
65574;PMS5003;73096;55.050;73.422;2024-03-17T12:36:37;6.50;6.00;3.00
65574;PMS5003;73096;55.050;73.422;2024-03-17T12:39:55;6.50;5.75;3.00
65574;PMS5003;73096;55.050;73.422;2024-03-17T12:42:58;7.00;7.00;3.00
65574;PMS5003;73096;55.050;73.422;2024-03-17T12:46:01;8.00;7.75;3.00
65574;PMS5003;73096;55.050;73.422;2024-03-17T12:49:04;10.00;8.00;3.50
65574;PMS5003;73096;55.050;73.422;2024-03-17T12:52:30;10.00;7.00;4.00
65574;PMS5003;73096;55.050;73.422;2024-03-17T12:55:32;9.00;7.75;4.00
65574;PMS5003;73096;55.050;73.422;2024-03-17T12:58:54;8.50;8.00;4.00
65574;PMS5003;73096;55.050;73.422;2024-03-17T13:02:26;7.50;7.50;4.00
65574;PMS5003;73096;55.050;73.422;2024-03-17T13:05:30;7.00;6.33;3.00
65574;PMS5003;73096;55.050;73.422;2024-03-17T13:08:34;6.00;4.00;3.00
65574;PMS5003;73096;55.050;73.422;2024-03-17T13:11:37;6.00;6.00;3.00
65574;PMS5003;73096;55.050;73.422;2024-03-17T13:14:39;6.50;6.50;3.00
65574;PMS5003;73096;55.050;73.422;2024-03-17T13:18:04;7.75;7.00;3.50
65574;PMS5003;73096;55.050;73.422;2024-03-17T13:21:07;8.33;6.00;4.00
65574;PMS5003;73096;55.050;73.422;2024-03-17T13:24:25;6.00;5.00;3.00
65574;PMS5003;73096;55.050;73.422;2024-03-17T13:27:45;6.00;5.50;3.00
65574;PMS5003;73096;55.050;73.422;2024-03-17T13:31:02;8.25;6.00;4.00
65574;PMS5003;73096;55.050;73.422;2024-03-17T13:34:27;11.00;9.75;5.00
65574;PMS5003;73096;55.050;73.422;2024-03-17T13:37:30;15.50;12.75;5.00
65574;PMS5003;73096;55.050;73.422;2024-03-17T13:40:33;20.25;16.75;8.75
65574;PMS5003;73096;55.050;73.422;2024-03-17T13:43:36;21.00;18.33;9.00
65574;PMS5003;73096;55.050;73.422;2024-03-17T13:46:39;17.00;15.75;9.00
65574;PMS5003;73096;55.050;73.422;2024-03-17T13:49:41;15.00;13.00;6.00
65574;PMS5003;73096;55.050;73.422;2024-03-17T13:52:47;12.00;12.00;4.00
65574;PMS5003;73096;55.050;73.422;2024-03-17T13:55:51;14.00;12.00;4.00
65574;PMS5003;73096;55.050;73.422;2024-03-17T13:58:54;13.00;12.00;5.00
65574;PMS5003;73096;55.050;73.422;2024-03-17T14:01:57;16.00;12.50;5.75
65574;PMS5003;73096;55.050;73.422;2024-03-17T14:05:01;14.50;13.00;4.00
65574;PMS5003;73096;55.050;73.422;2024-03-17T14:08:07;14.00;13.00;5.00
65574;PMS5003;73096;55.050;73.422;2024-03-17T14:11:10;14.00;12.00;5.00
65574;PMS5003;73096;55.050;73.422;2024-03-17T14:14:12;15.00;12.50;6.50
65574;PMS5003;73096;55.050;73.422;2024-03-17T14:17:15;15.00;14.00;7.00
65574;PMS5003;73096;55.050;73.422;2024-03-17T14:20:19;15.00;14.00;8.00
65574;PMS5003;73096;55.050;73.422;2024-03-17T14:23:23;19.00;16.00;8.00
65574;PMS5003;73096;55.050;73.422;2024-03-17T14:26:27;18.00;16.00;6.33
65574;PMS5003;73096;55.050;73.422;2024-03-17T14:29:31;14.75;13.00;5.00
65574;PMS5003;73096;55.050;73.422;2024-03-17T14:32:34;11.25;10.75;4.00
65574;PMS5003;73096;55.050;73.422;2024-03-17T14:35:37;10.75;9.00;3.00
65574;PMS5003;73096;55.050;73.422;2024-03-17T14:38:41;12.75;10.75;5.00
65574;PMS5003;73096;55.050;73.422;2024-03-17T14:41:46;12.00;11.00;4.75
65574;PMS5003;73096;55.050;73.422;2024-03-17T14:44:48;13.25;13.25;5.00
65574;PMS5003;73096;55.050;73.422;2024-03-17T14:47:52;14.75;14.75;5.75
65574;PMS5003;73096;55.050;73.422;2024-03-17T14:50:55;14.75;14.00;6.00
65574;PMS5003;73096;55.050;73.422;2024-03-17T14:53:59;14.00;14.00;5.00
65574;PMS5003;73096;55.050;73.422;2024-03-17T14:57:03;14.00;14.00;6.00
65574;PMS5003;73096;55.050;73.422;2024-03-17T15:00:07;15.00;14.00;6.00
65574;PMS5003;73096;55.050;73.422;2024-03-17T15:03:16;14.00;13.00;5.00
65574;PMS5003;73096;55.050;73.422;2024-03-17T15:06:20;15.75;13.00;7.00
65574;PMS5003;73096;55.050;73.422;2024-03-17T15:09:23;18.75;15.75;9.25
65574;PMS5003;73096;55.050;73.422;2024-03-17T15:12:25;22.33;18.67;10.00
65574;PMS5003;73096;55.050;73.422;2024-03-17T15:15:29;22.00;21.00;10.00
65574;PMS5003;73096;55.050;73.422;2024-03-17T15:18:32;24.75;21.00;10.00
65574;PMS5003;73096;55.050;73.422;2024-03-17T15:21:35;23.50;20.00;11.00
65574;PMS5003;73096;55.050;73.422;2024-03-17T15:24:37;28.00;23.00;13.00
65574;PMS5003;73096;55.050;73.422;2024-03-17T15:27:40;24.00;21.00;13.00
65574;PMS5003;73096;55.050;73.422;2024-03-17T15:30:43;19.25;17.00;10.00
65574;PMS5003;73096;55.050;73.422;2024-03-17T15:33:45;15.67;13.00;7.00
65574;PMS5003;73096;55.050;73.422;2024-03-17T15:36:48;15.75;13.00;5.25
65574;PMS5003;73096;55.050;73.422;2024-03-17T15:39:55;13.50;13.00;5.00
65574;PMS5003;73096;55.050;73.422;2024-03-17T15:42:59;12.00;12.00;5.00
65574;PMS5003;73096;55.050;73.422;2024-03-17T15:46:02;12.00;12.00;5.00
65574;PMS5003;73096;55.050;73.422;2024-03-17T15:49:05;12.00;12.00;3.00
65574;PMS5003;73096;55.050;73.422;2024-03-17T15:52:09;12.00;10.00;3.00
65574;PMS5003;73096;55.050;73.422;2024-03-17T15:55:13;13.00;12.00;3.00
65574;PMS5003;73096;55.050;73.422;2024-03-17T15:58:17;12.00;11.00;5.00
65574;PMS5003;73096;55.050;73.422;2024-03-17T16:01:20;11.00;9.00;4.00
65574;PMS5003;73096;55.050;73.422;2024-03-17T16:04:24;12.25;10.00;5.00
65574;PMS5003;73096;55.050;73.422;2024-03-17T16:07:30;12.00;10.00;4.00
65574;PMS5003;73096;55.050;73.422;2024-03-17T16:10:32;11.00;7.00;4.00
65574;PMS5003;73096;55.050;73.422;2024-03-17T16:13:35;8.00;6.00;3.25
65574;PMS5003;73096;55.050;73.422;2024-03-17T16:16:39;8.00;8.00;4.00
65574;PMS5003;73096;55.050;73.422;2024-03-17T16:19:42;8.00;7.00;2.75
65574;PMS5003;73096;55.050;73.422;2024-03-17T16:22:48;6.33;6.00;4.00
65574;PMS5003;73096;55.050;73.422;2024-03-17T16:25:55;7.00;7.00;2.00
65574;PMS5003;73096;55.050;73.422;2024-03-17T16:29:00;7.75;6.00;1.00
65574;PMS5003;73096;55.050;73.422;2024-03-17T16:32:02;7.75;6.00;2.00
65574;PMS5003;73096;55.050;73.422;2024-03-17T16:35:04;8.00;5.00;2.00
65574;PMS5003;73096;55.050;73.422;2024-03-17T16:38:08;7.25;6.00;2.00
65574;PMS5003;73096;55.050;73.422;2024-03-17T16:41:10;8.00;8.00;3.00
65574;PMS5003;73096;55.050;73.422;2024-03-17T16:44:17;8.00;7.00;3.00
65574;PMS5003;73096;55.050;73.422;2024-03-17T16:47:31;6.75;6.25;4.00
65574;PMS5003;73096;55.050;73.422;2024-03-17T16:50:35;8.00;6.00;2.00
65574;PMS5003;73096;55.050;73.422;2024-03-17T16:53:38;8.50;7.00;2.00
65574;PMS5003;73096;55.050;73.422;2024-03-17T16:56:44;7.25;7.00;3.00
65574;PMS5003;73096;55.050;73.422;2024-03-17T16:59:47;5.67;5.00;2.67
65574;PMS5003;73096;55.050;73.422;2024-03-17T17:02:49;5.75;4.50;2.00
65574;PMS5003;73096;55.050;73.422;2024-03-17T17:05:52;4.67;4.67;2.00
65574;PMS5003;73096;55.050;73.422;2024-03-17T17:08:56;5.50;5.00;2.00
65574;PMS5003;73096;55.050;73.422;2024-03-17T17:11:58;7.00;4.50;2.00
65574;PMS5003;73096;55.050;73.422;2024-03-17T17:15:01;7.00;5.00;2.00
65574;PMS5003;73096;55.050;73.422;2024-03-17T17:18:07;4.50;4.50;1.00
65574;PMS5003;73096;55.050;73.422;2024-03-17T17:21:29;4.00;4.00;1.67
65574;PMS5003;73096;55.050;73.422;2024-03-17T17:24:32;4.75;4.00;2.00